sensor_id;sensor_type;location;lat;lon;timestamp;pressure;altitude;pressure_sealevel;temperature;humidity
59367;BME280;45163;47.690;11.770;2023-02-11T00:00:50;95068.69;;;-5.47;100.00
59367;BME280;45163;47.690;11.770;2023-02-11T00:03:16;95062.28;;;-5.46;100.00
59367;BME280;45163;47.690;11.770;2023-02-11T00:05:42;95059.09;;;-5.30;100.00
59367;BME280;45163;47.690;11.770;2023-02-11T00:08:08;95058.53;;;-5.27;100.00
59367;BME280;45163;47.690;11.770;2023-02-11T00:10:34;95055.56;;;-5.25;100.00
59367;BME280;45163;47.690;11.770;2023-02-11T00:13:00;95058.22;;;-5.25;100.00
59367;BME280;45163;47.690;11.770;2023-02-11T00:15:26;95059.22;;;-5.21;100.00
59367;BME280;45163;47.690;11.770;2023-02-11T00:17:52;95059.78;;;-5.24;100.00
59367;BME280;45163;47.690;11.770;2023-02-11T00:20:18;95066.13;;;-5.20;100.00
59367;BME280;45163;47.690;11.770;2023-02-11T00:22:44;95069.34;;;-5.23;100.00
59367;BME280;45163;47.690;11.770;2023-02-11T00:25:10;95063.84;;;-5.27;100.00
59367;BME280;45163;47.690;11.770;2023-02-11T00:27:36;95064.25;;;-5.19;100.00
59367;BME280;45163;47.690;11.770;2023-02-11T00:30:03;95061.59;;;-5.19;100.00
59367;BME280;45163;47.690;11.770;2023-02-11T00:32:30;95059.31;;;-5.26;100.00
59367;BME280;45163;47.690;11.770;2023-02-11T00:34:56;95061.09;;;-5.21;100.00
59367;BME280;45163;47.690;11.770;2023-02-11T00:37:22;95063.16;;;-5.18;100.00
59367;BME280;45163;47.690;11.770;2023-02-11T00:39:48;95057.00;;;-5.00;100.00
59367;BME280;45163;47.690;11.770;2023-02-11T00:42:14;95057.69;;;-4.94;100.00
59367;BME280;45163;47.690;11.770;2023-02-11T00:44:41;95052.38;;;-4.94;100.00
59367;BME280;45163;47.690;11.770;2023-02-11T00:47:07;95050.28;;;-4.97;100.00
59367;BME280;45163;47.690;11.770;2023-02-11T00:49:33;95043.38;;;-4.98;100.00
59367;BME280;45163;47.690;11.770;2023-02-11T00:51:59;95046.94;;;-5.03;100.00
59367;BME280;45163;47.690;11.770;2023-02-11T00:54:24;95035.97;;;-5.15;100.00
59367;BME280;45163;47.690;11.770;2023-02-11T00:56:50;95045.59;;;-5.33;100.00
59367;BME280;45163;47.690;11.770;2023-02-11T00:59:16;95042.38;;;-5.49;100.00
59367;BME280;45163;47.690;11.770;2023-02-11T01:01:42;95051.31;;;-5.59;100.00
59367;BME280;45163;47.690;11.770;2023-02-11T01:04:08;95041.88;;;-5.70;100.00
59367;BME280;45163;47.690;11.770;2023-02-11T01:06:34;95041.97;;;-5.75;100.00
59367;BME280;45163;47.690;11.770;2023-02-11T01:09:00;95043.31;;;-5.78;100.00
59367;BME280;45163;47.690;11.770;2023-02-11T01:11:26;95040.44;;;-5.81;100.00
59367;BME280;45163;47.690;11.770;2023-02-11T01:13:52;95041.06;;;-5.84;100.00
59367;BME280;45163;47.690;11.770;2023-02-11T01:16:19;95039.09;;;-5.79;100.00
59367;BME280;45163;47.690;11.770;2023-02-11T01:18:45;95044.13;;;-5.58;100.00
59367;BME280;45163;47.690;11.770;2023-02-11T01:21:12;95040.56;;;-5.54;100.00
59367;BME280;45163;47.690;11.770;2023-02-11T01:23:38;95046.03;;;-5.45;100.00
59367;BME280;45163;47.690;11.770;2023-02-11T01:26:04;95031.59;;;-5.39;100.00
59367;BME280;45163;47.690;11.770;2023-02-11T01:28:30;95034.56;;;-5.27;100.00
59367;BME280;45163;47.690;11.770;2023-02-11T01:30:57;95033.75;;;-5.27;100.00
59367;BME280;45163;47.690;11.770;2023-02-11T01:33:24;95030.19;;;-5.36;100.00
59367;BME280;45163;47.690;11.770;2023-02-11T01:35:50;95033.16;;;-5.38;100.00
59367;BME280;45163;47.690;11.770;2023-02-11T01:38:21;95026.53;;;-5.40;100.00
59367;BME280;45163;47.690;11.770;2023-02-11T01:40:50;95031.38;;;-5.42;100.00
59367;BME280;45163;47.690;11.770;2023-02-11T01:43:17;95029.50;;;-5.42;100.00
59367;BME280;45163;47.690;11.770;2023-02-11T01:48:14;95013.41;;;-5.51;100.00
59367;BME280;45163;47.690;11.770;2023-02-11T01:50:43;95017.94;;;-5.51;100.00
59367;BME280;45163;47.690;11.770;2023-02-11T01:53:11;95009.47;;;-5.39;100.00
59367;BME280;45163;47.690;11.770;2023-02-11T01:55:56;95000.09;;;-5.18;100.00
59367;BME280;45163;47.690;11.770;2023-02-11T01:58:50;95010.16;;;-5.01;100.00
59367;BME280;45163;47.690;11.770;2023-02-11T02:01:22;95003.06;;;-4.92;100.00
59367;BME280;45163;47.690;11.770;2023-02-11T02:03:51;94993.81;;;-4.81;100.00
59367;BME280;45163;47.690;11.770;2023-02-11T02:06:32;94995.69;;;-4.67;100.00
59367;BME280;45163;47.690;11.770;2023-02-11T02:09:22;94988.50;;;-4.81;100.00
59367;BME280;45163;47.690;11.770;2023-02-11T02:11:49;94994.47;;;-5.03;100.00
59367;BME280;45163;47.690;11.770;2023-02-11T02:14:15;94988.34;;;-5.17;100.00
59367;BME280;45163;47.690;11.770;2023-02-11T02:16:41;94993.16;;;-5.33;100.00
59367;BME280;45163;47.690;11.770;2023-02-11T02:38:20;94982.75;;;-6.13;100.00
59367;BME280;45163;47.690;11.770;2023-02-11T02:40:56;94974.25;;;-6.15;100.00
59367;BME280;45163;47.690;11.770;2023-02-11T02:43:25;94973.63;;;-6.07;100.00
59367;BME280;45163;47.690;11.770;2023-02-11T02:45:52;94976.41;;;-5.98;100.00
59367;BME280;45163;47.690;11.770;2023-02-11T02:48:27;94968.72;;;-6.00;100.00
59367;BME280;45163;47.690;11.770;2023-02-11T03:04:59;94947.38;;;-5.95;100.00
59367;BME280;45163;47.690;11.770;2023-02-11T03:10:29;94962.84;;;-5.83;100.00
59367;BME280;45163;47.690;11.770;2023-02-11T03:12:56;94949.88;;;-5.85;100.00
59367;BME280;45163;47.690;11.770;2023-02-11T03:15:25;94953.41;;;-5.89;100.00
59367;BME280;45163;47.690;11.770;2023-02-11T03:17:54;94953.88;;;-5.87;100.00
59367;BME280;45163;47.690;11.770;2023-02-11T03:20:21;94957.31;;;-5.87;100.00
59367;BME280;45163;47.690;11.770;2023-02-11T03:22:57;94966.31;;;-5.83;100.00
59367;BME280;45163;47.690;11.770;2023-02-11T03:25:35;94958.19;;;-5.72;100.00
59367;BME280;45163;47.690;11.770;2023-02-11T03:31:29;94964.06;;;-5.43;100.00
59367;BME280;45163;47.690;11.770;2023-02-11T03:36:27;94960.34;;;-5.28;100.00
59367;BME280;45163;47.690;11.770;2023-02-11T03:38:59;94960.44;;;-5.33;100.00
59367;BME280;45163;47.690;11.770;2023-02-11T03:41:28;94957.75;;;-5.47;100.00
59367;BME280;45163;47.690;11.770;2023-02-11T03:43:57;94955.81;;;-5.60;100.00
59367;BME280;45163;47.690;11.770;2023-02-11T03:46:30;94954.66;;;-5.68;100.00
59367;BME280;45163;47.690;11.770;2023-02-11T03:49:03;94954.91;;;-5.69;100.00
59367;BME280;45163;47.690;11.770;2023-02-11T03:51:32;94951.00;;;-5.72;100.00
59367;BME280;45163;47.690;11.770;2023-02-11T03:54:01;94946.84;;;-5.64;100.00
59367;BME280;45163;47.690;11.770;2023-02-11T03:56:33;94950.47;;;-5.74;100.00
59367;BME280;45163;47.690;11.770;2023-02-11T03:59:01;94944.00;;;-5.68;100.00
59367;BME280;45163;47.690;11.770;2023-02-11T04:01:27;94946.69;;;-5.87;100.00
59367;BME280;45163;47.690;11.770;2023-02-11T04:03:53;94948.69;;;-5.92;100.00
59367;BME280;45163;47.690;11.770;2023-02-11T04:06:19;94945.47;;;-6.08;100.00
59367;BME280;45163;47.690;11.770;2023-02-11T04:08:45;94938.34;;;-6.13;100.00
59367;BME280;45163;47.690;11.770;2023-02-11T04:11:11;94939.34;;;-6.09;100.00
59367;BME280;45163;47.690;11.770;2023-02-11T04:13:37;94938.50;;;-6.04;100.00
59367;BME280;45163;47.690;11.770;2023-02-11T04:16:03;94929.16;;;-5.88;100.00
59367;BME280;45163;47.690;11.770;2023-02-11T04:18:29;94937.06;;;-5.83;100.00
59367;BME280;45163;47.690;11.770;2023-02-11T04:20:55;94940.00;;;-5.84;100.00
59367;BME280;45163;47.690;11.770;2023-02-11T04:23:21;94951.78;;;-5.90;100.00
59367;BME280;45163;47.690;11.770;2023-02-11T04:25:48;94955.53;;;-5.91;100.00
59367;BME280;45163;47.690;11.770;2023-02-11T04:28:14;94951.13;;;-5.82;100.00
59367;BME280;45163;47.690;11.770;2023-02-11T04:30:40;94948.16;;;-5.62;100.00
59367;BME280;45163;47.690;11.770;2023-02-11T04:33:06;94943.81;;;-5.58;100.00
59367;BME280;45163;47.690;11.770;2023-02-11T04:35:32;94940.47;;;-5.63;100.00
59367;BME280;45163;47.690;11.770;2023-02-11T04:37:58;94933.03;;;-5.80;100.00
59367;BME280;45163;47.690;11.770;2023-02-11T04:40:24;94929.94;;;-5.87;100.00
59367;BME280;45163;47.690;11.770;2023-02-11T04:42:50;94933.88;;;-5.98;100.00
59367;BME280;45163;47.690;11.770;2023-02-11T04:45:16;94939.56;;;-6.05;100.00
59367;BME280;45163;47.690;11.770;2023-02-11T04:47:42;94945.03;;;-6.15;100.00
59367;BME280;45163;47.690;11.770;2023-02-11T04:50:08;94942.22;;;-6.24;100.00
59367;BME280;45163;47.690;11.770;2023-02-11T04:52:34;94940.44;;;-6.29;100.00
59367;BME280;45163;47.690;11.770;2023-02-11T04:55:00;94941.53;;;-6.30;100.00
59367;BME280;45163;47.690;11.770;2023-02-11T04:57:26;94939.66;;;-6.10;100.00
59367;BME280;45163;47.690;11.770;2023-02-11T04:59:52;94943.50;;;-6.03;100.00
59367;BME280;45163;47.690;11.770;2023-02-11T05:02:18;94940.50;;;-5.96;100.00
59367;BME280;45163;47.690;11.770;2023-02-11T05:04:44;94943.03;;;-6.05;100.00
59367;BME280;45163;47.690;11.770;2023-02-11T05:07:10;94942.50;;;-6.07;100.00
59367;BME280;45163;47.690;11.770;2023-02-11T05:09:36;94949.69;;;-6.07;100.00
59367;BME280;45163;47.690;11.770;2023-02-11T05:12:02;94949.66;;;-5.88;100.00
59367;BME280;45163;47.690;11.770;2023-02-11T05:14:28;94948.25;;;-5.67;100.00
59367;BME280;45163;47.690;11.770;2023-02-11T05:16:54;94942.72;;;-5.57;100.00
59367;BME280;45163;47.690;11.770;2023-02-11T05:19:20;94942.47;;;-5.55;100.00
59367;BME280;45163;47.690;11.770;2023-02-11T05:21:45;94939.00;;;-5.56;100.00
59367;BME280;45163;47.690;11.770;2023-02-11T05:24:11;94945.03;;;-5.50;100.00
59367;BME280;45163;47.690;11.770;2023-02-11T05:26:37;94939.50;;;-5.40;100.00
59367;BME280;45163;47.690;11.770;2023-02-11T05:29:03;94933.31;;;-5.35;100.00
59367;BME280;45163;47.690;11.770;2023-02-11T05:31:29;94933.81;;;-5.33;100.00
59367;BME280;45163;47.690;11.770;2023-02-11T05:33:55;94936.59;;;-5.24;100.00
59367;BME280;45163;47.690;11.770;2023-02-11T05:36:21;94935.28;;;-5.27;100.00
59367;BME280;45163;47.690;11.770;2023-02-11T05:38:47;94934.44;;;-5.22;100.00
59367;BME280;45163;47.690;11.770;2023-02-11T05:41:13;94938.06;;;-5.18;100.00
59367;BME280;45163;47.690;11.770;2023-02-11T05:43:39;94927.22;;;-5.22;100.00
59367;BME280;45163;47.690;11.770;2023-02-11T05:46:05;94934.41;;;-5.36;100.00
59367;BME280;45163;47.690;11.770;2023-02-11T05:48:32;94927.44;;;-5.65;100.00
59367;BME280;45163;47.690;11.770;2023-02-11T05:50:58;94923.34;;;-5.90;100.00
59367;BME280;45163;47.690;11.770;2023-02-11T05:53:24;94926.56;;;-6.07;100.00
59367;BME280;45163;47.690;11.770;2023-02-11T05:55:50;94932.09;;;-6.03;100.00
59367;BME280;45163;47.690;11.770;2023-02-11T05:58:16;94937.19;;;-6.07;100.00
59367;BME280;45163;47.690;11.770;2023-02-11T06:00:42;94940.59;;;-6.20;100.00
59367;BME280;45163;47.690;11.770;2023-02-11T06:03:08;94946.19;;;-6.21;100.00
59367;BME280;45163;47.690;11.770;2023-02-11T06:05:34;94942.75;;;-6.22;100.00
59367;BME280;45163;47.690;11.770;2023-02-11T06:08:00;94942.72;;;-6.03;100.00
59367;BME280;45163;47.690;11.770;2023-02-11T06:10:26;94949.00;;;-5.80;100.00
59367;BME280;45163;47.690;11.770;2023-02-11T06:12:52;94947.34;;;-5.62;100.00
59367;BME280;45163;47.690;11.770;2023-02-11T06:15:18;94947.72;;;-5.69;100.00
59367;BME280;45163;47.690;11.770;2023-02-11T06:17:44;94947.53;;;-5.72;100.00
59367;BME280;45163;47.690;11.770;2023-02-11T06:20:10;94949.13;;;-5.71;100.00
59367;BME280;45163;47.690;11.770;2023-02-11T06:22:37;94944.59;;;-5.71;100.00
59367;BME280;45163;47.690;11.770;2023-02-11T06:25:03;94945.81;;;-5.82;100.00
59367;BME280;45163;47.690;11.770;2023-02-11T06:27:29;94948.38;;;-5.77;100.00
59367;BME280;45163;47.690;11.770;2023-02-11T06:29:55;94937.19;;;-5.74;100.00
59367;BME280;45163;47.690;11.770;2023-02-11T06:32:21;94933.84;;;-5.66;100.00
59367;BME280;45163;47.690;11.770;2023-02-11T06:34:47;94932.94;;;-5.42;100.00
59367;BME280;45163;47.690;11.770;2023-02-11T06:37:16;94936.97;;;-5.31;100.00
59367;BME280;45163;47.690;11.770;2023-02-11T06:39:43;94936.22;;;-5.04;100.00
59367;BME280;45163;47.690;11.770;2023-02-11T06:42:09;94925.84;;;-4.78;100.00
59367;BME280;45163;47.690;11.770;2023-02-11T06:44:36;94919.50;;;-4.55;100.00
59367;BME280;45163;47.690;11.770;2023-02-11T06:47:01;94916.69;;;-4.36;100.00
59367;BME280;45163;47.690;11.770;2023-02-11T06:49:27;94905.38;;;-4.19;100.00
59367;BME280;45163;47.690;11.770;2023-02-11T06:51:53;94902.47;;;-4.09;100.00
59367;BME280;45163;47.690;11.770;2023-02-11T06:54:19;94895.66;;;-4.01;100.00
59367;BME280;45163;47.690;11.770;2023-02-11T06:56:45;94887.00;;;-3.98;100.00
59367;BME280;45163;47.690;11.770;2023-02-11T06:59:17;94892.13;;;-3.88;100.00
59367;BME280;45163;47.690;11.770;2023-02-11T07:01:43;94887.31;;;-3.77;100.00
59367;BME280;45163;47.690;11.770;2023-02-11T07:04:09;94896.59;;;-3.74;100.00
59367;BME280;45163;47.690;11.770;2023-02-11T07:06:35;94894.09;;;-3.71;100.00
59367;BME280;45163;47.690;11.770;2023-02-11T07:09:03;94894.94;;;-3.62;100.00
59367;BME280;45163;47.690;11.770;2023-02-11T07:11:30;94903.31;;;-3.55;100.00
59367;BME280;45163;47.690;11.770;2023-02-11T07:14:04;94899.09;;;-3.47;100.00
59367;BME280;45163;47.690;11.770;2023-02-11T07:16:31;94906.97;;;-3.42;100.00
59367;BME280;45163;47.690;11.770;2023-02-11T07:18:57;94904.78;;;-3.40;100.00
59367;BME280;45163;47.690;11.770;2023-02-11T07:21:23;94918.03;;;-3.26;100.00
59367;BME280;45163;47.690;11.770;2023-02-11T07:23:49;94918.03;;;-3.26;100.00
59367;BME280;45163;47.690;11.770;2023-02-11T07:26:18;94920.69;;;-3.26;100.00
59367;BME280;45163;47.690;11.770;2023-02-11T07:28:44;94912.56;;;-3.21;100.00
59367;BME280;45163;47.690;11.770;2023-02-11T07:31:22;94902.38;;;-3.19;100.00
59367;BME280;45163;47.690;11.770;2023-02-11T07:33:50;94905.78;;;-3.27;100.00
59367;BME280;45163;47.690;11.770;2023-02-11T07:36:17;94911.91;;;-3.27;100.00
59367;BME280;45163;47.690;11.770;2023-02-11T07:38:43;94903.44;;;-3.29;100.00
59367;BME280;45163;47.690;11.770;2023-02-11T07:41:14;94905.63;;;-3.22;100.00
59367;BME280;45163;47.690;11.770;2023-02-11T07:43:41;94901.94;;;-3.12;100.00
59367;BME280;45163;47.690;11.770;2023-02-11T07:46:15;94910.31;;;-2.96;100.00
59367;BME280;45163;47.690;11.770;2023-02-11T07:48:42;94904.69;;;-2.86;100.00
59367;BME280;45163;47.690;11.770;2023-02-11T07:53:45;94920.69;;;-2.38;100.00
59367;BME280;45163;47.690;11.770;2023-02-11T07:56:13;94929.81;;;-2.21;100.00
59367;BME280;45163;47.690;11.770;2023-02-11T07:58:39;94927.00;;;-2.16;100.00
59367;BME280;45163;47.690;11.770;2023-02-11T08:01:14;94927.16;;;-2.13;100.00
59367;BME280;45163;47.690;11.770;2023-02-11T08:03:41;94925.25;;;-2.12;100.00
59367;BME280;45163;47.690;11.770;2023-02-11T08:06:12;94922.88;;;-2.14;100.00
59367;BME280;45163;47.690;11.770;2023-02-11T08:08:39;94929.84;;;-1.95;100.00
59367;BME280;45163;47.690;11.770;2023-02-11T08:11:11;94933.59;;;-1.79;100.00
59367;BME280;45163;47.690;11.770;2023-02-11T08:13:37;94934.19;;;-1.47;100.00
59367;BME280;45163;47.690;11.770;2023-02-11T08:16:04;94927.69;;;-1.29;100.00
59367;BME280;45163;47.690;11.770;2023-02-11T08:18:31;94918.84;;;-1.12;100.00
59367;BME280;45163;47.690;11.770;2023-02-11T08:21:08;94912.78;;;-1.01;100.00
59367;BME280;45163;47.690;11.770;2023-02-11T08:23:36;94905.06;;;-1.02;100.00
59367;BME280;45163;47.690;11.770;2023-02-11T08:26:03;94909.81;;;-1.08;100.00
59367;BME280;45163;47.690;11.770;2023-02-11T08:28:33;94911.69;;;-0.99;100.00
59367;BME280;45163;47.690;11.770;2023-02-11T08:31:08;94909.34;;;-0.71;100.00
59367;BME280;45163;47.690;11.770;2023-02-11T08:33:34;94912.47;;;-0.40;100.00
59367;BME280;45163;47.690;11.770;2023-02-11T08:36:00;94914.00;;;-0.30;100.00
59367;BME280;45163;47.690;11.770;2023-02-11T08:38:26;94915.38;;;-0.24;100.00
59367;BME280;45163;47.690;11.770;2023-02-11T08:40:52;94913.44;;;-0.15;100.00
59367;BME280;45163;47.690;11.770;2023-02-11T08:43:18;94923.13;;;-0.02;100.00
59367;BME280;45163;47.690;11.770;2023-02-11T08:45:44;94922.53;;;-0.07;100.00
59367;BME280;45163;47.690;11.770;2023-02-11T08:48:10;94924.94;;;-0.14;100.00
59367;BME280;45163;47.690;11.770;2023-02-11T08:50:38;94920.69;;;0.06;100.00
59367;BME280;45163;47.690;11.770;2023-02-11T08:53:04;94918.06;;;0.18;100.00
59367;BME280;45163;47.690;11.770;2023-02-11T08:55:30;94908.63;;;0.33;100.00
59367;BME280;45163;47.690;11.770;2023-02-11T08:57:56;94907.75;;;0.41;100.00
59367;BME280;45163;47.690;11.770;2023-02-11T09:00:22;94904.06;;;0.45;100.00
59367;BME280;45163;47.690;11.770;2023-02-11T09:02:48;94893.50;;;0.61;100.00
59367;BME280;45163;47.690;11.770;2023-02-11T09:05:14;94885.66;;;0.56;100.00
59367;BME280;45163;47.690;11.770;2023-02-11T09:07:40;94883.66;;;0.65;100.00
59367;BME280;45163;47.690;11.770;2023-02-11T09:10:07;94889.84;;;0.78;100.00
59367;BME280;45163;47.690;11.770;2023-02-11T09:12:33;94894.50;;;0.57;100.00
59367;BME280;45163;47.690;11.770;2023-02-11T09:14:59;94884.72;;;0.85;100.00
59367;BME280;45163;47.690;11.770;2023-02-11T09:17:25;94884.50;;;1.03;100.00
59367;BME280;45163;47.690;11.770;2023-02-11T09:19:51;94878.47;;;1.18;100.00
59367;BME280;45163;47.690;11.770;2023-02-11T09:22:17;94882.38;;;1.45;100.00
59367;BME280;45163;47.690;11.770;2023-02-11T09:24:43;94880.13;;;1.59;100.00
59367;BME280;45163;47.690;11.770;2023-02-11T09:27:09;94877.47;;;1.87;100.00
59367;BME280;45163;47.690;11.770;2023-02-11T09:29:35;94882.06;;;1.99;99.56
59367;BME280;45163;47.690;11.770;2023-02-11T09:32:01;94887.53;;;2.15;97.08
59367;BME280;45163;47.690;11.770;2023-02-11T09:34:27;94887.59;;;2.46;96.99
59367;BME280;45163;47.690;11.770;2023-02-11T09:36:53;94888.28;;;2.71;92.90
59367;BME280;45163;47.690;11.770;2023-02-11T09:39:19;94883.25;;;2.70;93.33
59367;BME280;45163;47.690;11.770;2023-02-11T09:44:34;94875.34;;;2.77;92.94
59367;BME280;45163;47.690;11.770;2023-02-11T09:47:25;94874.94;;;3.22;95.22
59367;BME280;45163;47.690;11.770;2023-02-11T09:50:18;94874.25;;;3.77;93.48
59367;BME280;45163;47.690;11.770;2023-02-11T09:52:58;94875.50;;;4.18;94.61
59367;BME280;45163;47.690;11.770;2023-02-11T09:57:56;94870.13;;;5.48;96.53
59367;BME280;45163;47.690;11.770;2023-02-11T10:00:24;94867.84;;;7.49;100.00
59367;BME280;45163;47.690;11.770;2023-02-11T10:16:58;94873.91;;;8.42;55.53
59367;BME280;45163;47.690;11.770;2023-02-11T10:24:37;94860.09;;;10.01;48.93
59367;BME280;45163;47.690;11.770;2023-02-11T10:27:19;94862.00;;;8.93;45.74
59367;BME280;45163;47.690;11.770;2023-02-11T10:29:52;94859.16;;;8.46;49.29
59367;BME280;45163;47.690;11.770;2023-02-11T10:32:27;94854.47;;;7.81;50.25
59367;BME280;45163;47.690;11.770;2023-02-11T10:34:59;94843.50;;;7.63;50.71
59367;BME280;45163;47.690;11.770;2023-02-11T10:37:26;94842.22;;;7.46;52.96
59367;BME280;45163;47.690;11.770;2023-02-11T10:39:52;94838.25;;;6.92;50.17
59367;BME280;45163;47.690;11.770;2023-02-11T10:42:18;94841.44;;;6.61;55.12
59367;BME280;45163;47.690;11.770;2023-02-11T10:44:57;94844.97;;;5.74;57.21
59367;BME280;45163;47.690;11.770;2023-02-11T10:47:29;94839.38;;;5.64;56.44
59367;BME280;45163;47.690;11.770;2023-02-11T10:49:57;94838.25;;;5.65;56.60
59367;BME280;45163;47.690;11.770;2023-02-11T10:52:29;94825.91;;;5.94;55.84
59367;BME280;45163;47.690;11.770;2023-02-11T10:57:49;94827.28;;;6.78;55.05
59367;BME280;45163;47.690;11.770;2023-02-11T11:00:30;94819.75;;;7.53;50.29
59367;BME280;45163;47.690;11.770;2023-02-11T11:03:02;94812.63;;;7.93;49.37
59367;BME280;45163;47.690;11.770;2023-02-11T11:05:35;94816.34;;;8.36;45.44
59367;BME280;45163;47.690;11.770;2023-02-11T11:08:05;94812.81;;;8.32;46.95
59367;BME280;45163;47.690;11.770;2023-02-11T11:10:39;94813.66;;;8.47;42.42
59367;BME280;45163;47.690;11.770;2023-02-11T11:13:38;94810.56;;;8.45;43.56
59367;BME280;45163;47.690;11.770;2023-02-11T11:16:28;94789.19;;;8.51;40.90
59367;BME280;45163;47.690;11.770;2023-02-11T11:24:00;94786.97;;;7.94;43.50
59367;BME280;45163;47.690;11.770;2023-02-11T11:26:40;94785.53;;;7.41;43.91
59367;BME280;45163;47.690;11.770;2023-02-11T11:29:12;94789.03;;;7.45;45.95
59367;BME280;45163;47.690;11.770;2023-02-11T11:34:50;94773.81;;;7.34;47.41
59367;BME280;45163;47.690;11.770;2023-02-11T11:37:31;94782.25;;;7.80;46.49
59367;BME280;45163;47.690;11.770;2023-02-11T11:42:35;94772.88;;;8.54;43.59
59367;BME280;45163;47.690;11.770;2023-02-11T11:47:50;94772.50;;;8.66;39.57
59367;BME280;45163;47.690;11.770;2023-02-11T11:53:04;94780.09;;;8.18;41.17
59367;BME280;45163;47.690;11.770;2023-02-11T11:55:37;94781.56;;;7.97;39.79
59367;BME280;45163;47.690;11.770;2023-02-11T11:58:14;94784.16;;;7.72;42.02
59367;BME280;45163;47.690;11.770;2023-02-11T12:11:39;94766.31;;;9.23;40.63
59367;BME280;45163;47.690;11.770;2023-02-11T12:24:44;94740.94;;;8.44;40.28
59367;BME280;45163;47.690;11.770;2023-02-11T12:27:19;94742.41;;;8.13;40.69
59367;BME280;45163;47.690;11.770;2023-02-11T12:30:06;94729.50;;;7.88;42.83
59367;BME280;45163;47.690;11.770;2023-02-11T12:32:45;94734.25;;;8.13;43.52
59367;BME280;45163;47.690;11.770;2023-02-11T12:35:48;94730.03;;;8.30;41.53
59367;BME280;45163;47.690;11.770;2023-02-11T12:50:37;94721.84;;;8.22;43.28
59367;BME280;45163;47.690;11.770;2023-02-11T12:52:47;94734.63;;;8.08;45.09
59367;BME280;45163;47.690;11.770;2023-02-11T12:55:22;94712.53;;;8.20;43.14
59367;BME280;45163;47.690;11.770;2023-02-11T12:57:50;94718.75;;;8.31;44.04
59367;BME280;45163;47.690;11.770;2023-02-11T13:05:51;94705.63;;;11.39;37.12
59367;BME280;45163;47.690;11.770;2023-02-11T13:08:28;94705.97;;;11.45;32.89
59367;BME280;45163;47.690;11.770;2023-02-11T13:11:01;94707.09;;;11.06;32.55
59367;BME280;45163;47.690;11.770;2023-02-11T13:13:34;94709.44;;;10.52;34.59
59367;BME280;45163;47.690;11.770;2023-02-11T13:16:12;94700.69;;;10.12;35.75
59367;BME280;45163;47.690;11.770;2023-02-11T13:19:07;94689.97;;;9.52;36.60
59367;BME280;45163;47.690;11.770;2023-02-11T13:23:21;94696.69;;;9.01;38.48
59367;BME280;45163;47.690;11.770;2023-02-11T13:25:41;94697.09;;;8.74;40.51
59367;BME280;45163;47.690;11.770;2023-02-11T13:30:53;94697.75;;;8.35;45.12
59367;BME280;45163;47.690;11.770;2023-02-11T13:33:37;94700.16;;;8.37;45.44
59367;BME280;45163;47.690;11.770;2023-02-11T13:36:11;94700.16;;;8.40;44.38
59367;BME280;45163;47.690;11.770;2023-02-11T13:38:38;94702.06;;;8.36;47.22
59367;BME280;45163;47.690;11.770;2023-02-11T13:43:42;94699.00;;;8.59;46.42
59367;BME280;45163;47.690;11.770;2023-02-11T13:46:12;94698.63;;;8.68;45.74
59367;BME280;45163;47.690;11.770;2023-02-11T13:48:50;94710.22;;;9.54;42.95
59367;BME280;45163;47.690;11.770;2023-02-11T13:51:34;94709.31;;;9.93;41.42
59367;BME280;45163;47.690;11.770;2023-02-11T13:54:01;94691.28;;;10.17;40.06
59367;BME280;45163;47.690;11.770;2023-02-11T13:56:37;94706.78;;;10.45;36.87
59367;BME280;45163;47.690;11.770;2023-02-11T13:59:24;94698.19;;;10.43;37.29
59367;BME280;45163;47.690;11.770;2023-02-11T14:10:58;94691.94;;;9.51;36.70
59367;BME280;45163;47.690;11.770;2023-02-11T14:13:29;94696.31;;;8.91;36.97
59367;BME280;45163;47.690;11.770;2023-02-11T14:16:22;94691.22;;;9.18;35.72
59367;BME280;45163;47.690;11.770;2023-02-11T14:23:42;94684.63;;;8.59;38.71
59367;BME280;45163;47.690;11.770;2023-02-11T14:31:28;94699.28;;;8.08;40.60
59367;BME280;45163;47.690;11.770;2023-02-11T14:36:53;94705.59;;;7.42;47.99
59367;BME280;45163;47.690;11.770;2023-02-11T14:39:36;94714.84;;;7.34;51.36
59367;BME280;45163;47.690;11.770;2023-02-11T14:42:14;94712.94;;;7.38;57.28
59367;BME280;45163;47.690;11.770;2023-02-11T14:44:43;94712.44;;;7.22;62.24
59367;BME280;45163;47.690;11.770;2023-02-11T14:47:17;94710.94;;;7.28;62.72
59367;BME280;45163;47.690;11.770;2023-02-11T14:49:44;94711.28;;;7.19;62.60
59367;BME280;45163;47.690;11.770;2023-02-11T14:52:29;94706.22;;;7.18;62.26
59367;BME280;45163;47.690;11.770;2023-02-11T14:55:17;94712.97;;;6.87;65.79
59367;BME280;45163;47.690;11.770;2023-02-11T14:58:04;94712.16;;;6.83;69.05
59367;BME280;45163;47.690;11.770;2023-02-11T15:00:30;94714.00;;;6.71;73.47
59367;BME280;45163;47.690;11.770;2023-02-11T15:02:56;94712.97;;;6.87;73.69
59367;BME280;45163;47.690;11.770;2023-02-11T15:05:25;94712.97;;;6.87;73.56
59367;BME280;45163;47.690;11.770;2023-02-11T15:07:54;94718.66;;;6.71;75.64
59367;BME280;45163;47.690;11.770;2023-02-11T15:10:36;94724.44;;;6.66;77.88
59367;BME280;45163;47.690;11.770;2023-02-11T15:13:06;94720.50;;;6.60;76.78
59367;BME280;45163;47.690;11.770;2023-02-11T15:15:33;94726.00;;;6.67;76.68
59367;BME280;45163;47.690;11.770;2023-02-11T15:18:02;94725.13;;;6.59;77.87
59367;BME280;45163;47.690;11.770;2023-02-11T15:20:30;94726.19;;;6.44;74.19
59367;BME280;45163;47.690;11.770;2023-02-11T15:23:00;94733.81;;;6.35;72.90
59367;BME280;45163;47.690;11.770;2023-02-11T15:25:27;94737.22;;;6.24;71.57
59367;BME280;45163;47.690;11.770;2023-02-11T15:27:55;94741.91;;;6.28;66.78
59367;BME280;45163;47.690;11.770;2023-02-11T15:32:59;94749.13;;;6.16;66.10
59367;BME280;45163;47.690;11.770;2023-02-11T15:35:30;94745.03;;;5.96;68.66
59367;BME280;45163;47.690;11.770;2023-02-11T15:37:58;94745.47;;;5.71;71.09
59367;BME280;45163;47.690;11.770;2023-02-11T15:40:27;94744.50;;;5.57;70.88